Terminal Aerodrome Forecast
Issued by NWS Charleston, WV

Current Version | Previous Version | Graphics & Text | Print | Product List | Glossary On
Versions: 1 2 3 4 5 6 7 8 9 10 11 12 13 14 15 16 17 18 19 20 21 22
607
FTUS41 KRLX 250529
TAFPKB
TAF
KPKB 250529Z 2506/2606 13006KT 6SM -SHRA BR BKN022 OVC040
      TEMPO 2506/2508 2SM -SHRA BR BKN018
     FM250900 20007KT 5SM SHRA BKN010
     FM251400 21007KT P6SM BKN022=

USA.gov is the U.S. government's official web portal to all federal, state and local government web resources and services.